createdAt,value
2016-06-12T00:00:38.498Z,1003.35
2016-06-12T00:01:38.532Z,1003.33
2016-06-12T00:02:38.582Z,1003.31
2016-06-12T00:03:38.617Z,1003.33
2016-06-12T00:04:38.651Z,1003.27
2016-06-12T00:05:38.685Z,1003.27
2016-06-12T00:06:38.720Z,1003.25
2016-06-12T00:07:38.770Z,1003.24
2016-06-12T00:08:38.829Z,1003.23
2016-06-12T00:09:38.903Z,1003.23
2016-06-12T00:10:38.975Z,1003.21
2016-06-12T00:11:39.063Z,1003.2
2016-06-12T00:12:39.135Z,1003.21
2016-06-12T00:13:39.191Z,1003.22
2016-06-12T00:14:39.239Z,1003.21
2016-06-12T00:15:39.288Z,1003.2
2016-06-12T00:16:39.335Z,1003.2
2016-06-12T00:17:39.399Z,1003.17
2016-06-12T00:18:39.441Z,1003.18
2016-06-12T00:19:39.480Z,1003.2
2016-06-12T00:20:39.520Z,1003.2
2016-06-12T00:21:39.559Z,1003.21
2016-06-12T00:22:39.598Z,1003.19
2016-06-12T00:23:39.635Z,1003.21
2016-06-12T00:24:39.687Z,1003.22
2016-06-12T00:25:39.724Z,1003.21
2016-06-12T00:26:39.760Z,1003.22
2016-06-12T00:27:39.796Z,1003.18
2016-06-12T00:28:39.847Z,1003.21
2016-06-12T00:29:39.882Z,1003.19
2016-06-12T00:30:39.916Z,1003.21
2016-06-12T00:31:39.952Z,1003.19
2016-06-12T00:32:39.986Z,1003.18
2016-06-12T00:33:40.021Z,1003.17
2016-06-12T00:34:40.134Z,1003.17
2016-06-12T00:35:40.215Z,1003.1
2016-06-12T00:36:40.141Z,1003.08
2016-06-12T00:37:40.175Z,1003.05
2016-06-12T00:38:40.209Z,1003.03
2016-06-12T00:39:40.244Z,1003.03
2016-06-12T00:40:40.293Z,1003.02
2016-06-12T00:41:40.328Z,1003.01
2016-06-12T00:42:40.362Z,1003.01
2016-06-12T00:43:40.397Z,1003.03
2016-06-12T00:44:40.431Z,1002.97
2016-06-12T00:45:40.465Z,1003.03
2016-06-12T00:46:40.515Z,1002.99
2016-06-12T00:47:40.550Z,1003
2016-06-12T00:48:40.584Z,1002.97
2016-06-12T00:49:40.619Z,1002.98
2016-06-12T00:50:40.668Z,1002.94
2016-06-12T00:51:40.719Z,1002.94
2016-06-12T00:52:40.736Z,1002.93
2016-06-12T00:53:40.772Z,1002.95
2016-06-12T00:54:40.806Z,1002.91
2016-06-12T00:55:40.839Z,1002.94
2016-06-12T00:56:40.874Z,1002.92
2016-06-12T00:57:40.909Z,1002.94
2016-06-12T00:58:40.959Z,1002.92
2016-06-12T00:59:40.993Z,1002.91
2016-06-12T01:00:41.027Z,1002.89
2016-06-12T01:01:41.061Z,1002.87
2016-06-12T01:02:41.096Z,1002.87
2016-06-12T01:03:41.146Z,1002.9
2016-06-12T01:04:41.195Z,1002.87
2016-06-12T01:05:41.214Z,1002.86
2016-06-12T01:06:41.248Z,1002.84
2016-06-12T01:07:41.283Z,1002.82
2016-06-12T01:08:41.332Z,1002.8
2016-06-12T01:09:41.352Z,1002.85
2016-06-12T01:10:41.402Z,1002.78
2016-06-12T01:11:41.435Z,1002.81
2016-06-12T01:12:41.470Z,1002.74
2016-06-12T01:13:41.505Z,1002.79
2016-06-12T01:14:41.539Z,1002.79
2016-06-12T01:15:41.590Z,1002.77
2016-06-12T01:16:41.623Z,1002.76
2016-06-12T01:17:41.658Z,1002.71
2016-06-12T01:18:41.691Z,1002.74
2016-06-12T01:19:41.741Z,1002.75
2016-06-12T01:20:41.760Z,1002.73
2016-06-12T01:21:41.794Z,1002.72
2016-06-12T01:22:41.845Z,1002.71
2016-06-12T01:23:41.879Z,1002.71
2016-06-12T01:24:41.914Z,1002.72
2016-06-12T01:25:41.948Z,1002.71
2016-06-12T01:26:41.982Z,1002.71
2016-06-12T01:27:42.016Z,1002.73
2016-06-12T01:28:42.066Z,1002.73
2016-06-12T01:29:42.100Z,1002.72
2016-06-12T01:30:42.136Z,1002.74
2016-06-12T01:31:42.169Z,1002.71
2016-06-12T01:32:42.203Z,1002.73
2016-06-12T01:33:42.238Z,1002.71
2016-06-12T01:34:42.304Z,1002.72
2016-06-12T01:35:42.323Z,1002.74
2016-06-12T01:36:42.357Z,1002.7
2016-06-12T01:37:42.391Z,1002.71
2016-06-12T01:38:42.425Z,1002.7
2016-06-12T01:39:42.460Z,1002.68
2016-06-12T01:40:42.495Z,1002.67
2016-06-12T01:41:42.528Z,1002.69
2016-06-12T01:42:42.578Z,1002.67
2016-06-12T01:43:42.612Z,1002.66
2016-06-12T01:44:42.647Z,1002.67
2016-06-12T01:45:42.682Z,1002.64
2016-06-12T01:46:42.715Z,1002.65
2016-06-12T01:47:42.750Z,1002.64
2016-06-12T01:48:42.784Z,1002.63
2016-06-12T01:49:42.834Z,1002.63
2016-06-12T01:50:43.165Z,1002.63
2016-06-12T01:51:42.903Z,1002.61
2016-06-12T01:52:42.937Z,1002.62
2016-06-12T01:53:42.987Z,1002.61
2016-06-12T01:54:43.007Z,1002.58
2016-06-12T01:55:43.055Z,1002.57
2016-06-12T01:56:43.090Z,1002.58
2016-06-12T01:57:43.125Z,1002.57
2016-06-12T01:58:43.158Z,1002.54
2016-06-12T01:59:43.209Z,1002.55
2016-06-12T02:00:43.228Z,1002.56
2016-06-12T02:01:43.278Z,1002.55
2016-06-12T02:02:43.312Z,1002.54
2016-06-12T02:03:43.346Z,1002.55
2016-06-12T02:04:43.380Z,1002.51
2016-06-12T02:05:43.493Z,1002.53
2016-06-12T02:06:43.449Z,1002.5
2016-06-12T02:07:43.483Z,1002.49
2016-06-12T02:08:43.534Z,1002.52
2016-06-12T02:09:43.568Z,1002.5
2016-06-12T02:10:43.602Z,1002.51
2016-06-12T02:11:43.637Z,1002.47
2016-06-12T02:12:43.671Z,1002.48
2016-06-12T02:13:43.705Z,1002.46
2016-06-12T02:14:43.739Z,1002.47
2016-06-12T02:15:43.789Z,1002.49
2016-06-12T02:16:43.824Z,1002.45
2016-06-12T02:17:43.858Z,1002.44
2016-06-12T02:18:43.892Z,1002.48
2016-06-12T02:19:43.926Z,1002.49
2016-06-12T02:20:44.367Z,1002.47
2016-06-12T02:21:44.043Z,1002.43
2016-06-12T02:22:44.045Z,1002.43
2016-06-12T02:23:44.079Z,1002.44
2016-06-12T02:24:44.129Z,1002.44
2016-06-12T02:25:44.148Z,1002.45
2016-06-12T02:26:44.183Z,1002.46
2016-06-12T02:27:44.232Z,1002.49
2016-06-12T02:28:44.267Z,1002.49
2016-06-12T02:29:44.301Z,1002.47
2016-06-12T02:30:44.335Z,1002.45
2016-06-12T02:31:44.370Z,1002.43
2016-06-12T02:32:44.405Z,1002.42
2016-06-12T02:33:44.438Z,1002.41
2016-06-12T02:34:44.488Z,1002.43
2016-06-12T02:35:44.522Z,1002.4
2016-06-12T02:36:44.556Z,1002.43
2016-06-12T02:37:44.607Z,1002.42
2016-06-12T02:38:44.626Z,1002.43
2016-06-12T02:39:44.660Z,1002.4
2016-06-12T02:40:44.693Z,1002.38
2016-06-12T02:41:44.744Z,1002.34
2016-06-12T02:42:44.779Z,1002.34
2016-06-12T02:43:44.813Z,1002.35
2016-06-12T02:44:44.847Z,1002.35
2016-06-12T02:45:44.881Z,1002.36
2016-06-12T02:46:44.916Z,1002.35
2016-06-12T02:47:44.950Z,1002.32
2016-06-12T02:48:45.000Z,1002.35
2016-06-12T02:49:45.034Z,1002.31
2016-06-12T02:50:45.068Z,1002.3
2016-06-12T02:51:45.103Z,1002.33
2016-06-12T02:52:45.137Z,1002.31
2016-06-12T02:53:45.187Z,1002.35
2016-06-12T02:54:45.222Z,1002.33
2016-06-12T02:55:45.256Z,1002.32
2016-06-12T02:56:45.289Z,1002.31
2016-06-12T02:57:45.325Z,1002.33
2016-06-12T02:58:45.359Z,1002.38
2016-06-12T02:59:45.409Z,1002.37
2016-06-12T03:00:45.427Z,1002.34
2016-06-12T03:01:45.477Z,1002.35
2016-06-12T03:02:45.511Z,1002.35
2016-06-12T03:03:45.546Z,1002.39
2016-06-12T03:04:45.581Z,1002.4
2016-06-12T03:05:45.614Z,1002.39
2016-06-12T03:06:45.648Z,1002.41
2016-06-12T03:07:45.699Z,1002.4
2016-06-12T03:08:45.734Z,1002.43
2016-06-12T03:09:45.782Z,1002.45
2016-06-12T03:10:45.802Z,1002.47
2016-06-12T03:11:45.836Z,1002.45
2016-06-12T03:12:45.871Z,1002.46
2016-06-12T03:13:45.920Z,1002.49
2016-06-12T03:14:45.955Z,1002.48
2016-06-12T03:15:45.990Z,1002.46
2016-06-12T03:16:46.023Z,1002.48
2016-06-12T03:17:46.057Z,1002.46
2016-06-12T03:18:46.107Z,1002.47
2016-06-12T03:19:46.126Z,1002.48
2016-06-12T03:20:46.177Z,1002.46
2016-06-12T03:21:46.210Z,1002.49
2016-06-12T03:22:46.244Z,1002.47
2016-06-12T03:23:46.280Z,1002.48
2016-06-12T03:24:46.314Z,1002.52
2016-06-12T03:25:46.348Z,1002.49
2016-06-12T03:26:46.382Z,1002.49
2016-06-12T03:27:46.432Z,1002.49
2016-06-12T03:28:46.466Z,1002.48
2016-06-12T03:29:46.502Z,1002.47
2016-06-12T03:30:46.535Z,1002.47
2016-06-12T03:31:46.569Z,1002.51
2016-06-12T03:32:46.604Z,1002.46
2016-06-12T03:33:46.639Z,1002.45
2016-06-12T03:34:46.689Z,1002.48
2016-06-12T03:35:47.081Z,1002.45
2016-06-12T03:36:46.757Z,1002.45
2016-06-12T03:37:46.791Z,1002.48
2016-06-12T03:38:46.826Z,1002.48
2016-06-12T03:39:46.860Z,1002.46
2016-06-12T03:40:46.910Z,1002.46
2016-06-12T03:41:46.929Z,1002.49
2016-06-12T03:42:46.963Z,1002.47
2016-06-12T03:43:47.012Z,1002.48
2016-06-12T03:44:47.047Z,1002.45
2016-06-12T03:45:47.081Z,1002.44
2016-06-12T03:46:47.116Z,1002.46
2016-06-12T03:47:47.150Z,1002.42
2016-06-12T03:48:47.184Z,1002.47
2016-06-12T03:49:47.219Z,1002.47
2016-06-12T03:50:47.269Z,1002.49
2016-06-12T03:51:47.303Z,1002.44
2016-06-12T03:52:47.337Z,1002.41
2016-06-12T03:53:47.372Z,1002.46
2016-06-12T03:54:47.407Z,1002.44
2016-06-12T03:55:47.440Z,1002.43
2016-06-12T03:56:47.474Z,1002.47
2016-06-12T03:57:47.509Z,1002.44
2016-06-12T03:58:47.558Z,1002.43
2016-06-12T03:59:47.594Z,1002.44
2016-06-12T04:00:47.628Z,1002.42
2016-06-12T04:01:47.661Z,1002.48
2016-06-12T04:02:47.695Z,1002.46
2016-06-12T04:03:47.731Z,1002.46
2016-06-12T04:04:47.765Z,1002.44
2016-06-12T04:05:47.815Z,1002.43
2016-06-12T04:06:47.849Z,1002.46
2016-06-12T04:07:47.883Z,1002.46
2016-06-12T04:08:47.918Z,1002.41
2016-06-12T04:09:47.952Z,1002.44
2016-06-12T04:10:47.986Z,1002.45
2016-06-12T04:11:48.020Z,1002.44
2016-06-12T04:12:48.070Z,1002.46
2016-06-12T04:13:48.105Z,1002.48
2016-06-12T04:14:48.139Z,1002.49
2016-06-12T04:15:48.174Z,1002.5
2016-06-12T04:16:48.208Z,1002.52
2016-06-12T04:17:48.242Z,1002.49
2016-06-12T04:18:48.276Z,1002.49
2016-06-12T04:19:48.327Z,1002.51
2016-06-12T04:20:49.017Z,1002.47
2016-06-12T04:21:48.395Z,1002.51
2016-06-12T04:22:48.429Z,1002.5
2016-06-12T04:23:48.464Z,1002.44
2016-06-12T04:24:48.499Z,1002.47
2016-06-12T04:25:48.532Z,1002.44
2016-06-12T04:26:48.582Z,1002.45
2016-06-12T04:27:48.616Z,1002.46
2016-06-12T04:28:48.651Z,1002.45
2016-06-12T04:29:48.686Z,1002.42
2016-06-12T04:30:48.720Z,1002.47
2016-06-12T04:31:48.753Z,1002.45
2016-06-12T04:32:48.804Z,1002.47
2016-06-12T04:33:48.838Z,1002.47
2016-06-12T04:34:48.873Z,1002.47
2016-06-12T04:35:48.907Z,1002.48
2016-06-12T04:36:48.941Z,1002.52
2016-06-12T04:37:48.976Z,1002.52
2016-06-12T04:38:49.010Z,1002.55
2016-06-12T04:39:49.059Z,1002.55
2016-06-12T04:40:49.095Z,1002.56
2016-06-12T04:41:49.129Z,1002.5
2016-06-12T04:42:49.163Z,1002.56
2016-06-12T04:43:49.197Z,1002.54
2016-06-12T04:44:49.232Z,1002.51
2016-06-12T04:45:49.266Z,1002.53
2016-06-12T04:46:49.316Z,1002.53
2016-06-12T04:47:49.350Z,1002.51
2016-06-12T04:48:49.384Z,1002.53
2016-06-12T04:49:49.419Z,1002.51
2016-06-12T04:50:49.468Z,1002.54
2016-06-12T04:51:49.504Z,1002.48
2016-06-12T04:52:49.537Z,1002.5
2016-06-12T04:53:49.571Z,1002.5
2016-06-12T04:54:49.606Z,1002.49
2016-06-12T04:55:49.641Z,1002.51
2016-06-12T04:56:49.690Z,1002.48
2016-06-12T04:57:49.725Z,1002.5
2016-06-12T04:58:49.759Z,1002.51
2016-06-12T04:59:49.793Z,1002.54
2016-06-12T05:00:49.828Z,1002.51
2016-06-12T05:01:49.877Z,1002.54
2016-06-12T05:02:49.912Z,1002.56
2016-06-12T05:03:49.946Z,1002.54
2016-06-12T05:04:49.980Z,1002.55
2016-06-12T05:05:50.015Z,1002.54
2016-06-12T05:06:50.050Z,1002.54
2016-06-12T05:07:50.099Z,1002.55
2016-06-12T05:08:50.133Z,1002.56
2016-06-12T05:09:50.168Z,1002.56
2016-06-12T05:10:50.202Z,1002.52
2016-06-12T05:11:50.236Z,1002.55
2016-06-12T05:12:50.286Z,1002.53
2016-06-12T05:13:50.321Z,1002.5
2016-06-12T05:14:50.355Z,1002.5
2016-06-12T05:15:50.389Z,1002.54
2016-06-12T05:16:50.423Z,1002.53
2016-06-12T05:17:50.458Z,1002.5
2016-06-12T05:18:50.509Z,1002.52
2016-06-12T05:19:50.542Z,1002.49
2016-06-12T05:20:50.592Z,1002.47
2016-06-12T05:21:50.611Z,1002.47
2016-06-12T05:22:50.661Z,1002.42
2016-06-12T05:23:50.694Z,1002.43
2016-06-12T05:24:50.730Z,1002.46
2016-06-12T05:25:50.763Z,1002.43
2016-06-12T05:26:50.814Z,1002.47
2016-06-12T05:27:50.848Z,1002.47
2016-06-12T05:28:50.882Z,1002.47
2016-06-12T05:29:50.917Z,1002.5
2016-06-12T05:30:50.952Z,1002.46
2016-06-12T05:31:51.001Z,1002.47
2016-06-12T05:32:51.036Z,1002.47
2016-06-12T05:33:51.069Z,1002.46
2016-06-12T05:34:51.104Z,1002.43
2016-06-12T05:35:51.153Z,1002.44
2016-06-12T05:36:51.189Z,1002.45
2016-06-12T05:37:51.223Z,1002.49
2016-06-12T05:38:51.257Z,1002.46
2016-06-12T05:39:51.291Z,1002.46
2016-06-12T05:40:51.341Z,1002.44
2016-06-12T05:41:51.375Z,1002.43
2016-06-12T05:42:51.410Z,1002.42
2016-06-12T05:43:51.444Z,1002.43
2016-06-12T05:44:51.494Z,1002.46
2016-06-12T05:45:51.528Z,1002.45
2016-06-12T05:46:51.562Z,1002.43
2016-06-12T05:47:51.597Z,1002.42
2016-06-12T05:48:51.646Z,1002.44
2016-06-12T05:49:51.681Z,1002.45
2016-06-12T05:50:51.716Z,1002.45
2016-06-12T05:51:51.766Z,1002.48
2016-06-12T05:52:51.800Z,1002.48
2016-06-12T05:53:51.850Z,1002.47
2016-06-12T05:54:51.884Z,1002.47
2016-06-12T05:55:51.918Z,1002.49
2016-06-12T05:56:51.953Z,1002.52
2016-06-12T05:57:51.988Z,1002.51
2016-06-12T05:58:52.037Z,1002.48
2016-06-12T05:59:52.071Z,1002.49
2016-06-12T06:00:52.122Z,1002.47
2016-06-12T06:01:52.155Z,1002.51
2016-06-12T06:02:52.190Z,1002.47
2016-06-12T06:03:52.224Z,1002.48
2016-06-12T06:04:52.275Z,1002.46
2016-06-12T06:05:52.308Z,1002.45
2016-06-12T06:06:52.359Z,1002.45
2016-06-12T06:07:52.393Z,1002.46
2016-06-12T06:08:52.427Z,1002.39
2016-06-12T06:09:52.477Z,1002.42
2016-06-12T06:10:52.511Z,1002.45
2016-06-12T06:11:52.546Z,1002.46
2016-06-12T06:12:52.595Z,1002.45
2016-06-12T06:13:52.630Z,1002.44
2016-06-12T06:14:52.681Z,1002.44
2016-06-12T06:15:52.714Z,1002.43
2016-06-12T06:16:52.748Z,1002.45
2016-06-12T06:17:52.799Z,1002.41
2016-06-12T06:18:52.833Z,1002.47
2016-06-12T06:19:52.867Z,1002.47
2016-06-12T06:20:52.948Z,1002.45
2016-06-12T06:21:52.952Z,1002.45
2016-06-12T06:22:53.001Z,1002.48
2016-06-12T06:23:53.036Z,1002.48
2016-06-12T06:24:53.086Z,1002.51
2016-06-12T06:25:53.121Z,1002.51
2016-06-12T06:26:53.154Z,1002.5
2016-06-12T06:27:53.188Z,1002.51
2016-06-12T06:28:53.239Z,1002.52
2016-06-12T06:29:53.273Z,1002.47
2016-06-12T06:30:53.308Z,1002.51
2016-06-12T06:31:53.357Z,1002.48
2016-06-12T06:32:53.392Z,1002.47
2016-06-12T06:33:53.426Z,1002.48
2016-06-12T06:34:53.475Z,1002.5
2016-06-12T06:35:53.510Z,1002.48
2016-06-12T06:36:53.560Z,1002.5
2016-06-12T06:37:53.594Z,1002.47
2016-06-12T06:38:53.644Z,1002.47
2016-06-12T06:39:53.679Z,1002.49
2016-06-12T06:40:53.714Z,1002.46
2016-06-12T06:41:53.763Z,1002.48
2016-06-12T06:42:53.798Z,1002.49
2016-06-12T06:43:53.831Z,1002.47
2016-06-12T06:44:53.882Z,1002.5
2016-06-12T06:45:53.916Z,1002.46
2016-06-12T06:46:53.966Z,1002.48
2016-06-12T06:47:54.000Z,1002.44
2016-06-12T06:48:54.034Z,1002.45
2016-06-12T06:49:54.084Z,1002.46
2016-06-12T06:50:54.119Z,1002.43
2016-06-12T06:51:54.169Z,1002.4
2016-06-12T06:52:54.203Z,1002.38
2016-06-12T06:53:54.253Z,1002.37
2016-06-12T06:54:54.287Z,1002.35
2016-06-12T06:55:54.352Z,1002.36
2016-06-12T06:56:54.372Z,1002.39
2016-06-12T06:57:54.422Z,1002.36
2016-06-12T06:58:54.455Z,1002.37
2016-06-12T06:59:54.490Z,1002.33
2016-06-12T07:00:54.540Z,1002.29
2016-06-12T07:01:54.575Z,1002.29
2016-06-12T07:02:54.624Z,1002.31
2016-06-12T07:03:54.659Z,1002.33
2016-06-12T07:04:54.709Z,1002.31
2016-06-12T07:05:54.743Z,1002.32
2016-06-12T07:06:55.591Z,1002.32
2016-06-12T07:07:54.828Z,1002.32
2016-06-12T07:08:54.878Z,1002.32
2016-06-12T07:09:54.911Z,1002.35
2016-06-12T07:10:54.962Z,1002.31
2016-06-12T07:11:54.996Z,1002.33
2016-06-12T07:12:55.046Z,1002.32
2016-06-12T07:13:55.079Z,1002.31
2016-06-12T07:14:55.130Z,1002.33
2016-06-12T07:15:55.164Z,1002.35
2016-06-12T07:16:55.214Z,1002.35
2016-06-12T07:17:55.249Z,1002.33
2016-06-12T07:18:55.298Z,1002.32
2016-06-12T07:19:55.333Z,1002.34
2016-06-12T07:20:55.383Z,1002.36
2016-06-12T07:21:55.417Z,1002.34
2016-06-12T07:22:55.468Z,1002.3
2016-06-12T07:23:55.502Z,1002.34
2016-06-12T07:24:55.551Z,1002.35
2016-06-12T07:25:55.586Z,1002.35
2016-06-12T07:26:55.619Z,1002.33
2016-06-12T07:27:55.685Z,1002.34
2016-06-12T07:28:55.720Z,1002.37
2016-06-12T07:29:55.754Z,1002.38
2016-06-12T07:30:55.804Z,1002.39
2016-06-12T07:31:55.838Z,1002.39
2016-06-12T07:32:55.888Z,1002.4
2016-06-12T07:33:55.923Z,1002.39
2016-06-12T07:34:55.972Z,1002.42
2016-06-12T07:35:56.007Z,1002.39
2016-06-12T07:36:56.494Z,1002.35
2016-06-12T07:37:56.092Z,1002.32
2016-06-12T07:38:56.126Z,1002.31
2016-06-12T07:39:56.176Z,1002.35
2016-06-12T07:40:56.210Z,1002.33
2016-06-12T07:41:56.260Z,1002.32
2016-06-12T07:42:56.294Z,1002.32
2016-06-12T07:43:56.344Z,1002.31
2016-06-12T07:44:56.378Z,1002.29
2016-06-12T07:45:56.428Z,1002.31
2016-06-12T07:46:56.463Z,1002.33
2016-06-12T07:47:56.512Z,1002.33
2016-06-12T07:48:56.547Z,1002.32
2016-06-12T07:49:56.612Z,1002.34
2016-06-12T07:50:56.631Z,1002.36
2016-06-12T07:51:56.728Z,1002.37
2016-06-12T07:52:56.716Z,1002.33
2016-06-12T07:53:56.766Z,1002.31
2016-06-12T07:54:56.800Z,1002.33
2016-06-12T07:55:56.850Z,1002.32
2016-06-12T07:56:56.884Z,1002.35
2016-06-12T07:57:56.934Z,1002.34
2016-06-12T07:58:56.984Z,1002.36
2016-06-12T07:59:57.018Z,1002.34
2016-06-12T08:00:57.068Z,1002.32
2016-06-12T08:01:57.103Z,1002.33
2016-06-12T08:02:57.152Z,1002.37
2016-06-12T08:03:57.187Z,1002.32
2016-06-12T08:04:57.236Z,1002.31
2016-06-12T08:05:57.286Z,1002.32
2016-06-12T08:06:57.321Z,1002.36
2016-06-12T08:07:57.370Z,1002.35
2016-06-12T08:08:57.421Z,1002.33
2016-06-12T08:09:57.455Z,1002.36
2016-06-12T08:10:57.521Z,1002.36
2016-06-12T08:11:57.540Z,1002.36
2016-06-12T08:12:57.589Z,1002.36
2016-06-12T08:13:57.624Z,1002.32
2016-06-12T08:14:57.674Z,1002.39
2016-06-12T08:15:57.723Z,1002.36
2016-06-12T08:16:57.758Z,1002.35
2016-06-12T08:17:57.808Z,1002.32
2016-06-12T08:18:57.858Z,1002.31
2016-06-12T08:19:57.892Z,1002.27
2016-06-12T08:20:57.943Z,1002.31
2016-06-12T08:21:57.992Z,1002.31
2016-06-12T08:22:58.027Z,1002.31
2016-06-12T08:23:58.077Z,1002.29
2016-06-12T08:24:58.111Z,1002.3
2016-06-12T08:25:58.162Z,1002.31
2016-06-12T08:26:58.195Z,1002.3
2016-06-12T08:27:58.245Z,1002.32
2016-06-12T08:28:58.296Z,1002.33
2016-06-12T08:29:58.345Z,1002.35
2016-06-12T08:30:58.380Z,1002.29
2016-06-12T08:31:58.413Z,1002.27
2016-06-12T08:32:58.463Z,1002.28
2016-06-12T08:33:58.514Z,1002.24
2016-06-12T08:34:58.547Z,1002.27
2016-06-12T08:35:58.598Z,1002.25
2016-06-12T08:36:58.648Z,1002.21
2016-06-12T08:37:58.682Z,1002.22
2016-06-12T08:38:58.732Z,1002.24
2016-06-12T08:39:58.782Z,1002.24
2016-06-12T08:40:58.816Z,1002.25
2016-06-12T08:41:58.867Z,1002.27
2016-06-12T08:42:58.917Z,1002.24
2016-06-12T08:43:58.950Z,1002.22
2016-06-12T08:44:59.001Z,1002.27
2016-06-12T08:45:59.050Z,1002.28
2016-06-12T08:46:59.084Z,1002.23
2016-06-12T08:47:59.135Z,1002.28
2016-06-12T08:48:59.185Z,1002.25
2016-06-12T08:49:59.219Z,1002.24
2016-06-12T08:50:59.285Z,1002.25
2016-06-12T08:51:59.725Z,1002.2
2016-06-12T08:52:59.369Z,1002.23
2016-06-12T08:53:59.404Z,1002.27
2016-06-12T08:54:59.454Z,1002.23
2016-06-12T08:55:59.487Z,1002.22
2016-06-12T08:56:59.554Z,1002.18
2016-06-12T08:57:59.588Z,1002.22
2016-06-12T08:58:59.638Z,1002.22
2016-06-12T08:59:59.671Z,1002.21
2016-06-12T09:00:59.722Z,1002.22
2016-06-12T09:01:59.772Z,1002.24
2016-06-12T09:02:59.806Z,1002.21
2016-06-12T09:04:00.075Z,1002.22
2016-06-12T09:04:59.906Z,1002.22
2016-06-12T09:05:59.940Z,1002.21
2016-06-12T09:06:59.990Z,1002.21
2016-06-12T09:08:00.041Z,1002.23
2016-06-12T09:09:00.074Z,1002.26
2016-06-12T09:10:00.125Z,1002.29
2016-06-12T09:11:00.175Z,1002.26
2016-06-12T09:12:00.208Z,1002.24
2016-06-12T09:13:00.258Z,1002.27
2016-06-12T09:14:00.310Z,1002.25
2016-06-12T09:15:00.384Z,1002.25
2016-06-12T09:16:00.475Z,1002.25
2016-06-12T09:17:00.566Z,1002.25
2016-06-12T09:18:00.641Z,1002.27
2016-06-12T09:19:00.731Z,1002.26
2016-06-12T09:20:00.796Z,1002.29
2016-06-12T09:21:00.860Z,1002.27
2016-06-12T09:22:00.909Z,1002.28
2016-06-12T09:23:00.974Z,1002.29
2016-06-12T09:24:01.022Z,1002.3
2016-06-12T09:25:01.077Z,1002.25
2016-06-12T09:26:01.132Z,1002.3
2016-06-12T09:27:01.171Z,1002.28
2016-06-12T09:28:01.227Z,1002.26
2016-06-12T09:29:01.282Z,1002.26
2016-06-12T09:30:01.318Z,1002.22
2016-06-12T09:31:01.369Z,1002.21
2016-06-12T09:32:01.422Z,1002.23
2016-06-12T09:33:01.473Z,1002.26
2016-06-12T09:34:01.509Z,1002.26
2016-06-12T09:35:01.560Z,1002.22
2016-06-12T09:36:01.611Z,1002.23
2016-06-12T09:37:01.646Z,1002.2
2016-06-12T09:38:01.696Z,1002.18
2016-06-12T09:39:01.748Z,1002.27
2016-06-12T09:40:01.782Z,1002.23
2016-06-12T09:41:01.832Z,1002.22
2016-06-12T09:42:01.883Z,1002.23
2016-06-12T09:43:01.932Z,1002.25
2016-06-12T09:44:01.983Z,1002.25
2016-06-12T09:45:02.018Z,1002.19
2016-06-12T09:46:02.083Z,1002.24
2016-06-12T09:47:02.117Z,1002.22
2016-06-12T09:48:02.167Z,1002.18
2016-06-12T09:49:02.217Z,1002.17
2016-06-12T09:50:02.267Z,1002.16
2016-06-12T09:51:02.302Z,1002.19
2016-06-12T09:52:02.351Z,1002.24
2016-06-12T09:53:02.854Z,1002.15
2016-06-12T09:54:02.452Z,1002.11
2016-06-12T09:55:02.502Z,1002.12
2016-06-12T09:56:02.535Z,1002.11
2016-06-12T09:57:02.585Z,1002.15
2016-06-12T09:58:02.636Z,1002.12
2016-06-12T09:59:02.686Z,1002.13
2016-06-12T10:00:02.720Z,1002.09
2016-06-12T10:01:02.770Z,1002.15
2016-06-12T10:02:02.820Z,1002.09
2016-06-12T10:03:02.854Z,1002.14
2016-06-12T10:04:02.904Z,1002.15
2016-06-12T10:05:02.954Z,1002.14
2016-06-12T10:06:03.004Z,1002.14
2016-06-12T10:07:03.053Z,1002.12
2016-06-12T10:08:03.353Z,1002.13
2016-06-12T10:09:03.154Z,1002.12
2016-06-12T10:10:03.188Z,1002.21
2016-06-12T10:11:03.237Z,1002.17
2016-06-12T10:12:03.272Z,1002.15
2016-06-12T10:13:03.322Z,1002.09
2016-06-12T10:14:03.372Z,1002.1
2016-06-12T10:15:03.406Z,1002.09
2016-06-12T10:16:03.456Z,1002.14
2016-06-12T10:17:03.506Z,1002.08
2016-06-12T10:18:03.556Z,1002.11
2016-06-12T10:19:03.591Z,1002.08
2016-06-12T10:20:03.640Z,1002.12
2016-06-12T10:21:03.690Z,1002.13
2016-06-12T10:22:03.725Z,1002.14
2016-06-12T10:23:03.775Z,1002.1
2016-06-12T10:24:03.825Z,1002.09
2016-06-12T10:25:03.875Z,1002.13
2016-06-12T10:26:03.909Z,1002.09
2016-06-12T10:27:03.959Z,1002.07
2016-06-12T10:28:04.009Z,1002.07
2016-06-12T10:29:04.043Z,1002.06
2016-06-12T10:30:04.093Z,1002.1
2016-06-12T10:31:04.144Z,1002.11
2016-06-12T10:32:04.178Z,1002.09
2016-06-12T10:33:04.228Z,1002.05
2016-06-12T10:34:04.277Z,1002.07
2016-06-12T10:35:04.312Z,1002.08
2016-06-12T10:36:04.362Z,1002.06
2016-06-12T10:37:04.412Z,1002.05
2016-06-12T10:38:05.212Z,1002.05
2016-06-12T10:39:04.496Z,1002.06
2016-06-12T10:40:04.546Z,1002.05
2016-06-12T10:41:04.580Z,1002.04
2016-06-12T10:42:04.630Z,1002.05
2016-06-12T10:43:04.680Z,1002.05
2016-06-12T10:44:04.714Z,1002.02
2016-06-12T10:45:04.764Z,1002
2016-06-12T10:46:04.814Z,1002.02
2016-06-12T10:47:04.848Z,1002.01
2016-06-12T10:48:04.899Z,1002.02
2016-06-12T10:49:04.949Z,1002.02
2016-06-12T10:50:04.982Z,1002.03
2016-06-12T10:51:05.033Z,1002.04
2016-06-12T10:52:05.067Z,1002.05
2016-06-12T10:53:05.772Z,1002.04
2016-06-12T10:54:05.167Z,1002.02
2016-06-12T10:55:05.201Z,1001.98
2016-06-12T10:56:05.251Z,1001.97
2016-06-12T10:57:05.301Z,1001.96
2016-06-12T10:58:05.336Z,1001.92
2016-06-12T10:59:05.385Z,1001.89
2016-06-12T11:00:05.435Z,1001.84
2016-06-12T11:01:05.469Z,1001.89
2016-06-12T11:02:05.520Z,1001.85
2016-06-12T11:03:05.570Z,1001.86
2016-06-12T11:04:05.603Z,1001.81
2016-06-12T11:05:05.654Z,1001.78
2016-06-12T11:06:05.704Z,1001.77
2016-06-12T11:07:05.737Z,1001.76
2016-06-12T11:08:05.788Z,1001.78
2016-06-12T11:09:05.838Z,1001.78
2016-06-12T11:10:05.888Z,1001.79
2016-06-12T11:11:05.922Z,1001.79
2016-06-12T11:12:05.972Z,1001.83
2016-06-12T11:13:06.022Z,1001.78
2016-06-12T11:14:06.073Z,1001.7
2016-06-12T11:15:06.107Z,1001.7
2016-06-12T11:16:06.157Z,1001.77
2016-06-12T11:17:06.207Z,1001.76
2016-06-12T11:18:06.256Z,1001.73
2016-06-12T11:19:06.291Z,1001.74
2016-06-12T11:20:06.341Z,1001.67
2016-06-12T11:21:06.391Z,1001.7
2016-06-12T11:22:06.441Z,1001.71
2016-06-12T11:23:06.490Z,1001.7
2016-06-12T11:24:06.525Z,1001.73
2016-06-12T11:25:06.590Z,1001.71
2016-06-12T11:26:06.624Z,1001.67
2016-06-12T11:27:06.674Z,1001.74
2016-06-12T11:28:06.724Z,1001.74
2016-06-12T11:29:06.759Z,1001.68
2016-06-12T11:30:06.808Z,1001.7
2016-06-12T11:31:06.858Z,1001.67
2016-06-12T11:32:06.909Z,1001.63
2016-06-12T11:33:06.959Z,1001.66
2016-06-12T11:34:07.009Z,1001.6
2016-06-12T11:35:07.043Z,1001.59
2016-06-12T11:36:07.093Z,1001.56
2016-06-12T11:37:07.144Z,1001.56
2016-06-12T11:38:07.194Z,1001.56
2016-06-12T11:39:07.244Z,1001.55
2016-06-12T11:40:07.293Z,1001.49
2016-06-12T11:41:07.342Z,1001.44
2016-06-12T11:42:07.392Z,1001.43
2016-06-12T11:43:07.458Z,1001.43
2016-06-12T11:44:07.508Z,1001.4
2016-06-12T11:45:07.558Z,1001.47
2016-06-12T11:46:07.593Z,1001.44
2016-06-12T11:47:07.643Z,1001.42
2016-06-12T11:48:07.692Z,1001.43
2016-06-12T11:49:07.742Z,1001.44
2016-06-12T11:50:07.808Z,1001.39
2016-06-12T11:51:07.842Z,1001.37
2016-06-12T11:52:07.908Z,1001.35
2016-06-12T11:53:07.958Z,1001.36
2016-06-12T11:54:08.007Z,1001.39
2016-06-12T11:55:08.058Z,1001.38
2016-06-12T11:56:08.108Z,1001.39
2016-06-12T11:57:08.141Z,1001.37
2016-06-12T11:58:08.207Z,1001.36
2016-06-12T11:59:08.242Z,1001.35
2016-06-12T12:00:08.292Z,1001.36
2016-06-12T12:01:08.342Z,1001.38
2016-06-12T12:02:08.392Z,1001.33
2016-06-12T12:03:08.442Z,1001.35
2016-06-12T12:04:08.491Z,1001.34
2016-06-12T12:05:08.526Z,1001.28
2016-06-12T12:06:08.576Z,1001.29
2016-06-12T12:07:08.625Z,1001.26
2016-06-12T12:08:08.675Z,1001.3